Hauptseite
METAR-TAF:

METAR-TAF

Flughäfen :

Faßberg, Deutschland

Heeresflugplatz Faßberg

Breite: 52-55N, Länge: 010-11E, Höhe: 75 m

Beobachtung

Neuester Wetterbericht von vor 33 Minuten, um 08:20 UTC
Wind 10 kt aus Süd/Südwest
Temperatur 10°C
Luftfeuchtigkeit 66%
Luftdruck 1004 hPa
Sichtweite 10 km oder mehr
Durchbrochene Bewölkung in der Höhe von 4200 ft

METAR: ETHS 270820Z 21010KT 9999 BKN042 10/04 Q1004 BLU BLU

Zeit: 09:53 (08:53 UTC)

Prognose

Neuester Wetterbericht von vor 42 Minuten, um 08:11 UTC
Gültige Prognose vom 27 um 09 UTC bis 27 um 18 UTC
Wind 12 kt aus Süd/Südwest
Sichtweite 10 km oder mehr
Durchbrochene Bewölkung in der Höhe von 4500 ft
Zeitweise
vom 27 um 11 UTC bis 27 um 18 UTC
Wind 15 kt aus Süd, Böen bis zu 25 kt
Sichtweite 10 km oder mehr
Durchbrochene Bewölkung in der Höhe von 3000 ft

TAF: ETHS 270811Z 2709/2718 20012KT 9999 NSW BKN045 TEMPO 2711/2718 19015G25KT 9999 NSW BKN030

Wetterbeobachtungen und Prognosen von mehr als 4000 Flughäfen (METAR und TAF Bericht).

Die verfügbaren Stationen werden durch gelbe und rote Markierungen auf der Karte dargestellt.

Führen Sie die Maus auf sie, um den Namen der Station zu sehen.

Darauf klicken, um die Beobachtung von Wetterbeobachtungen und Prognosen zu sehen.

Um die Karte zu ändern : klicken Sie auf den grünen Tasten mit einem schwarzen Kreuz Zum Vergrößern, auf den grünen Button mit einem Gedankenstrich zu verkleinern, oder auf die grünen Pfeile für benachbarte Karten.


METAR-TAF: